KSBN/SBN METAR and TAF weather

Enter ICAO airport designator
Station Type Date Time Source
KSBN METAR 2019/04/23 03:54 UTC NOAA

KSBN 230354Z AUTO 16011KT 10SM FEW070 SCT080 BKN110 19/08 A2992 RMK AO2 SLP129 T01890083


Station Type Date Time Source
KSBN Decoded METAR 2019/04/23 03:54 UTC NOAA

SOUTH BEND REGIONAL AIRPORT, IN, United States (KSBN) 41-42N 086-19W 237M
Apr 22, 2019 - 11:54 PM EDT / 2019.04.23 0354 UTC
Wind: from the SSE (160 degrees) at 13 MPH (11 KT):0
Visibility: 10 mile(s):0
Sky conditions: mostly cloudy
Temperature: 66.0 F (18.9 C)
Dew Point: 46.9 F (8.3 C)
Relative Humidity: 50%
Pressure (altimeter): 29.92 in. Hg (1013 hPa)
ob: KSBN 230354Z AUTO 16011KT 10SM FEW070 SCT080 BKN110 19/08 A2992 RMK AO2 SLP129 T01890083
cycle: 4

Station Type Date Time Source
KSBN TAF 2019/04/23 01:58 UTC NOAA

TAF
AMD KSBN 230057Z 2301/2324 19015G25KT P6SM VCSH BKN180
FM230700 20013KT P6SM VCSH BKN025
FM231100 24012KT P6SM VCSH BKN012
FM231600 31013G23KT P6SM OVC020
FM232100 33014G24KT P6SM SCT120

Example: see airport list